Time;durP1;ratioP1;P1;durP2;ratioP2;P2;SDS_P1;SDS_P2;PMS_P1;PMS_P2;Temp;Humidity;BMP_temperature;BMP_pressure;BME280_temperature;BME280_humidity;BME280_pressure;Samples;Min_cycle;Max_cycle;Signal;HPM_P1;HPM_P2
2021/05/07 00:00:50;;;;;;;31.50;24.97;;;;;;;;;;2093015;28;20182;-55
2021/05/07 00:01:50;;;;;;;31.67;24.37;;;;;;;;;;2102415;28;20191;-57
2021/05/07 00:02:50;;;;;;;28.53;22.37;;;;;;;;;;2093903;28;20636;-57
2021/05/07 00:03:50;;;;;;;33.27;24.50;;;;;;;;;;2113002;28;20165;-56
2021/05/07 00:04:51;;;;;;;33.07;24.97;;;;;;;;;;2114503;28;20640;-56
2021/05/07 00:05:55;;;;;;;32.30;24.30;;;;;;;;;;2089643;28;20558;-57
2021/05/07 00:06:55;;;;;;;29.93;23.43;;;;;;;;;;2098172;28;20197;-59
2021/05/07 00:07:56;;;;;;;28.93;23.20;;;;;;;;;;2092801;28;20187;-57
2021/05/07 00:08:57;;;;;;;30.83;24.63;;;;;;;;;;2094868;28;20202;-56
2021/05/07 00:09:58;;;;;;;31.37;24.73;;;;;;;;;;2094196;28;20183;-58
2021/05/07 00:10:59;;;;;;;30.80;24.07;;;;;;;;;;2111244;28;20204;-56
2021/05/07 00:11:59;;;;;;;27.87;22.77;;;;;;;;;;2112443;28;20271;-58
2021/05/07 00:12:59;;;;;;;28.00;23.37;;;;;;;;;;2113829;28;20182;-56
2021/05/07 00:14:00;;;;;;;29.93;23.90;;;;;;;;;;2096326;28;20200;-58
2021/05/07 00:15:00;;;;;;;27.67;23.67;;;;;;;;;;2095298;28;20197;-58
2021/05/07 00:16:00;;;;;;;27.50;22.10;;;;;;;;;;2113246;28;20196;-56
2021/05/07 00:17:01;;;;;;;27.87;22.10;;;;;;;;;;2103535;28;20178;-56
2021/05/07 00:18:01;;;;;;;27.60;23.43;;;;;;;;;;2102074;28;20183;-55
2021/05/07 00:19:05;;;;;;;27.87;22.03;;;;;;;;;;2107456;28;20262;-57
2021/05/07 00:20:06;;;;;;;27.57;22.10;;;;;;;;;;2107695;28;20557;-57
2021/05/07 00:21:06;;;;;;;28.70;23.33;;;;;;;;;;2095974;28;20180;-58
2021/05/07 00:22:07;;;;;;;30.47;24.33;;;;;;;;;;2096140;28;20637;-58
2021/05/07 00:23:07;;;;;;;32.83;22.47;;;;;;;;;;2091890;28;20171;-57
2021/05/07 00:24:07;;;;;;;31.53;23.17;;;;;;;;;;2088696;28;20659;-58
2021/05/07 00:25:08;;;;;;;29.20;22.17;;;;;;;;;;2075862;28;20217;-58
2021/05/07 00:26:09;;;;;;;28.40;22.93;;;;;;;;;;2095879;28;20221;-56
2021/05/07 00:27:09;;;;;;;29.70;23.17;;;;;;;;;;2105389;28;20181;-60
2021/05/07 00:28:10;;;;;;;30.23;22.87;;;;;;;;;;2113043;28;20201;-58
2021/05/07 00:29:11;;;;;;;30.50;23.07;;;;;;;;;;2102270;28;20205;-58
2021/05/07 00:30:11;;;;;;;29.70;23.70;;;;;;;;;;2108094;28;20173;-60
2021/05/07 00:31:11;;;;;;;31.23;24.47;;;;;;;;;;2099204;28;20633;-57
2021/05/07 00:32:12;;;;;;;29.57;22.90;;;;;;;;;;2103256;28;20189;-56
2021/05/07 00:33:12;;;;;;;29.40;22.90;;;;;;;;;;2096390;28;20174;-54
2021/05/07 00:34:13;;;;;;;26.27;22.00;;;;;;;;;;2094207;28;20210;-58
2021/05/07 00:35:13;;;;;;;29.50;22.73;;;;;;;;;;2097829;28;20266;-59
2021/05/07 00:36:13;;;;;;;24.10;20.13;;;;;;;;;;2103937;28;20173;-59
2021/05/07 00:37:13;;;;;;;26.77;19.20;;;;;;;;;;2102181;28;20722;-58
2021/05/07 00:38:14;;;;;;;24.57;20.23;;;;;;;;;;2104290;28;20280;-57
2021/05/07 00:39:15;;;;;;;26.43;20.77;;;;;;;;;;2102682;28;20204;-58
2021/05/07 00:40:15;;;;;;;25.60;19.87;;;;;;;;;;2103492;28;20175;-57
2021/05/07 00:41:16;;;;;;;26.30;20.93;;;;;;;;;;2104091;28;20170;-58
2021/05/07 00:42:18;;;;;;;27.80;21.50;;;;;;;;;;2100852;28;20260;-60
2021/05/07 00:43:18;;;;;;;31.30;22.27;;;;;;;;;;2101776;28;20163;-58
2021/05/07 00:44:18;;;;;;;27.57;21.47;;;;;;;;;;2106086;28;20170;-57
2021/05/07 00:45:18;;;;;;;23.93;20.40;;;;;;;;;;2107034;28;20174;-56
2021/05/07 00:46:19;;;;;;;24.40;20.73;;;;;;;;;;2097420;28;20224;-55
2021/05/07 00:47:19;;;;;;;24.13;19.40;;;;;;;;;;2098422;28;20639;-54
2021/05/07 00:48:20;;;;;;;26.50;20.43;;;;;;;;;;2099522;28;20177;-56
2021/05/07 00:49:21;;;;;;;27.37;21.10;;;;;;;;;;2099591;28;20162;-56
2021/05/07 00:50:23;;;;;;;23.50;21.00;;;;;;;;;;2108216;28;20202;-54
2021/05/07 00:51:24;;;;;;;25.73;20.70;;;;;;;;;;2110903;28;20166;-56
2021/05/07 00:52:25;;;;;;;24.57;20.07;;;;;;;;;;2101886;28;20746;-56
2021/05/07 00:53:28;;;;;;;27.27;21.17;;;;;;;;;;2097726;28;20182;-57
2021/05/07 00:54:30;;;;;;;30.03;22.50;;;;;;;;;;2094035;28;20167;-58
2021/05/07 00:55:31;;;;;;;24.23;20.90;;;;;;;;;;2103564;28;20158;-57
2021/05/07 00:56:32;;;;;;;29.93;23.07;;;;;;;;;;2095257;28;20195;-57
2021/05/07 00:57:33;;;;;;;27.37;22.70;;;;;;;;;;2096818;28;20253;-54
2021/05/07 00:58:34;;;;;;;25.20;20.57;;;;;;;;;;2107803;28;20197;-57
2021/05/07 00:59:34;;;;;;;25.60;20.40;;;;;;;;;;2092857;28;20179;-56
2021/05/07 01:00:35;;;;;;;25.07;21.13;;;;;;;;;;2089075;28;20577;-58
2021/05/07 01:01:37;;;;;;;25.30;21.00;;;;;;;;;;2096456;28;20194;-56
2021/05/07 01:02:37;;;;;;;25.07;20.33;;;;;;;;;;2087646;28;20172;-57
2021/05/07 01:03:38;;;;;;;24.63;19.47;;;;;;;;;;2098309;28;20245;-63
2021/05/07 01:04:39;;;;;;;24.30;20.17;;;;;;;;;;2103096;28;20643;-60
2021/05/07 01:05:40;;;;;;;24.87;20.37;;;;;;;;;;2104492;28;20155;-55
2021/05/07 01:06:44;;;;;;;26.43;21.73;;;;;;;;;;2111388;28;20265;-57
2021/05/07 01:07:49;;;;;;;28.33;23.43;;;;;;;;;;2115123;28;20696;-56
2021/05/07 01:08:49;;;;;;;31.73;24.30;;;;;;;;;;2097950;28;20178;-60
2021/05/07 01:09:50;;;;;;;51.57;34.43;;;;;;;;;;2090910;28;20683;-59
2021/05/07 01:10:52;;;;;;;40.20;28.83;;;;;;;;;;2097902;28;20265;-53
2021/05/07 01:11:52;;;;;;;33.23;25.53;;;;;;;;;;2095467;28;20198;-56
2021/05/07 01:12:53;;;;;;;34.60;26.23;;;;;;;;;;2106862;28;20158;-55
2021/05/07 01:13:54;;;;;;;35.23;25.60;;;;;;;;;;2103451;28;20179;-54
2021/05/07 01:15:11;;;;;;;34.13;26.20;;;;;;;;;;2106489;28;20205;-54
2021/05/07 01:16:13;;;;;;;32.97;25.73;;;;;;;;;;2093983;28;20221;-54
2021/05/07 01:17:14;;;;;;;36.03;26.70;;;;;;;;;;2103269;28;20174;-58
2021/05/07 01:18:14;;;;;;;34.63;26.63;;;;;;;;;;2105119;28;20167;-56
2021/05/07 01:19:15;;;;;;;35.10;27.33;;;;;;;;;;2093119;28;20167;-59
2021/05/07 01:20:19;;;;;;;34.10;25.93;;;;;;;;;;2095068;28;20182;-57
2021/05/07 01:21:20;;;;;;;34.07;26.83;;;;;;;;;;2099349;28;20579;-57
2021/05/07 01:22:20;;;;;;;36.27;26.83;;;;;;;;;;2105695;28;20189;-57
2021/05/07 01:23:20;;;;;;;35.43;27.33;;;;;;;;;;2102030;28;20171;-56
2021/05/07 01:24:25;;;;;;;33.17;25.53;;;;;;;;;;2089695;28;20180;-57
2021/05/07 01:25:26;;;;;;;36.77;26.63;;;;;;;;;;2086624;28;20186;-58
2021/05/07 01:26:27;;;;;;;37.83;27.50;;;;;;;;;;2094119;28;20168;-55
2021/05/07 01:27:27;;;;;;;34.87;26.13;;;;;;;;;;2102523;28;20166;-57
2021/05/07 01:28:28;;;;;;;36.57;26.33;;;;;;;;;;2087763;28;20173;-54
2021/05/07 01:29:28;;;;;;;37.20;27.27;;;;;;;;;;2078218;28;20176;-57
2021/05/07 01:30:29;;;;;;;37.27;27.90;;;;;;;;;;2092753;28;20651;-58
2021/05/07 01:31:30;;;;;;;34.23;26.93;;;;;;;;;;2094300;28;20299;-54
2021/05/07 01:32:30;;;;;;;37.07;28.07;;;;;;;;;;2094406;28;20203;-56
2021/05/07 01:33:30;;;;;;;36.00;27.47;;;;;;;;;;2090356;28;20601;-58
2021/05/07 01:34:31;;;;;;;33.97;25.03;;;;;;;;;;2099321;28;20178;-60
2021/05/07 01:35:32;;;;;;;42.83;27.50;;;;;;;;;;2113516;28;20181;-57
2021/05/07 01:36:32;;;;;;;36.73;27.20;;;;;;;;;;2110979;28;20193;-58
2021/05/07 01:37:33;;;;;;;38.73;28.03;;;;;;;;;;2106143;28;20171;-60
2021/05/07 01:38:33;;;;;;;37.63;27.70;;;;;;;;;;2092126;28;20229;-59
2021/05/07 01:39:34;;;;;;;36.60;27.37;;;;;;;;;;2086717;28;20161;-55
2021/05/07 01:40:36;;;;;;;35.53;26.50;;;;;;;;;;2093927;28;20174;-55
2021/05/07 01:41:36;;;;;;;35.33;26.13;;;;;;;;;;2104625;28;20208;-54
2021/05/07 01:42:36;;;;;;;36.20;26.40;;;;;;;;;;2100038;28;20221;-55
2021/05/07 01:43:36;;;;;;;34.27;25.03;;;;;;;;;;2107275;28;20178;-57
2021/05/07 01:44:38;;;;;;;34.50;26.23;;;;;;;;;;2098964;28;20598;-57
2021/05/07 01:45:40;;;;;;;35.13;24.63;;;;;;;;;;2099589;28;20170;-54
2021/05/07 01:46:40;;;;;;;33.93;25.87;;;;;;;;;;2092528;28;20199;-55
2021/05/07 01:47:41;;;;;;;33.17;25.43;;;;;;;;;;2103988;28;20160;-53
2021/05/07 01:48:42;;;;;;;32.57;25.50;;;;;;;;;;2110199;28;20179;-58
2021/05/07 01:49:42;;;;;;;37.07;27.27;;;;;;;;;;2116577;28;20230;-58
2021/05/07 01:50:43;;;;;;;37.80;27.03;;;;;;;;;;2105708;28;20198;-58
2021/05/07 01:51:43;;;;;;;32.80;24.60;;;;;;;;;;2107319;28;20274;-56
2021/05/07 01:52:44;;;;;;;32.23;23.93;;;;;;;;;;2100258;28;20210;-59
2021/05/07 01:53:45;;;;;;;32.43;23.90;;;;;;;;;;2110090;28;20654;-58
2021/05/07 01:54:45;;;;;;;33.03;25.50;;;;;;;;;;2107762;28;20708;-55
2021/05/07 01:55:47;;;;;;;33.43;24.97;;;;;;;;;;2107800;28;20196;-55
2021/05/07 01:56:53;;;;;;;28.77;22.90;;;;;;;;;;2093309;28;20187;-53
2021/05/07 01:57:53;;;;;;;32.93;25.23;;;;;;;;;;2099280;28;20262;-56
2021/05/07 01:58:54;;;;;;;31.60;24.27;;;;;;;;;;2094770;28;20230;-58
2021/05/07 01:59:54;;;;;;;31.23;23.30;;;;;;;;;;2104942;28;20201;-55
2021/05/07 02:00:55;;;;;;;34.27;24.17;;;;;;;;;;2102527;28;20178;-56
2021/05/07 02:01:55;;;;;;;27.60;22.57;;;;;;;;;;2099748;28;20211;-54
2021/05/07 02:02:57;;;;;;;29.87;22.50;;;;;;;;;;2111510;28;20185;-56
2021/05/07 02:04:03;;;;;;;28.87;21.33;;;;;;;;;;2093523;28;20679;-57
2021/05/07 02:05:12;;;;;;;28.57;21.57;;;;;;;;;;2094932;28;20182;-57
2021/05/07 02:06:13;;;;;;;26.97;20.73;;;;;;;;;;2089259;28;20723;-58
2021/05/07 02:07:19;;;;;;;25.63;19.53;;;;;;;;;;2094990;28;20270;-55
2021/05/07 02:08:20;;;;;;;26.10;20.43;;;;;;;;;;2091204;28;20197;-57
2021/05/07 02:09:20;;;;;;;31.00;21.97;;;;;;;;;;2098401;28;20169;-56
2021/05/07 02:10:22;;;;;;;25.97;19.50;;;;;;;;;;2100286;28;20158;-57
2021/05/07 02:11:23;;;;;;;23.50;18.40;;;;;;;;;;2093516;28;20175;-58
2021/05/07 02:12:23;;;;;;;23.40;19.53;;;;;;;;;;2104289;28;20666;-56
2021/05/07 02:13:23;;;;;;;25.43;20.13;;;;;;;;;;2108176;28;20214;-58
2021/05/07 02:14:26;;;;;;;26.67;19.67;;;;;;;;;;2091367;28;20172;-57
2021/05/07 02:15:27;;;;;;;24.63;19.57;;;;;;;;;;2097166;28;20186;-53
2021/05/07 02:16:29;;;;;;;23.90;19.97;;;;;;;;;;2099169;28;20234;-54
2021/05/07 02:17:34;;;;;;;25.50;19.27;;;;;;;;;;2099205;28;20209;-53
2021/05/07 02:18:35;;;;;;;19.07;17.07;;;;;;;;;;2101684;28;20232;-55
2021/05/07 02:19:40;;;;;;;21.20;18.07;;;;;;;;;;2097529;28;20167;-58
2021/05/07 02:20:43;;;;;;;21.17;17.37;;;;;;;;;;2098789;28;20700;-54
2021/05/07 02:21:43;;;;;;;24.27;18.43;;;;;;;;;;2093186;28;20274;-55
2021/05/07 02:22:45;;;;;;;20.10;16.77;;;;;;;;;;2098606;28;20175;-55
2021/05/07 02:23:45;;;;;;;20.37;17.63;;;;;;;;;;2095021;28;20184;-58
2021/05/07 02:24:46;;;;;;;22.07;17.57;;;;;;;;;;2096420;28;20178;-55
2021/05/07 02:25:46;;;;;;;20.73;17.90;;;;;;;;;;2090672;28;20160;-54
2021/05/07 02:26:53;;;;;;;21.63;17.50;;;;;;;;;;2099190;28;20167;-54
2021/05/07 02:27:55;;;;;;;23.07;18.47;;;;;;;;;;2116689;28;20174;-56
2021/05/07 02:28:59;;;;;;;21.40;17.67;;;;;;;;;;2106937;28;20174;-57
2021/05/07 02:30:01;;;;;;;21.23;17.70;;;;;;;;;;2094829;28;20210;-56
2021/05/07 02:31:02;;;;;;;19.57;17.23;;;;;;;;;;2100876;28;20608;-54
2021/05/07 02:32:03;;;;;;;20.30;17.43;;;;;;;;;;2101620;22;20370;-56
2021/05/07 02:33:04;;;;;;;20.30;18.20;;;;;;;;;;2095843;28;20183;-55
2021/05/07 02:34:05;;;;;;;20.10;16.73;;;;;;;;;;2103672;28;20182;-55
2021/05/07 02:35:05;;;;;;;19.53;16.60;;;;;;;;;;2088470;28;20254;-54
2021/05/07 02:36:06;;;;;;;19.23;15.33;;;;;;;;;;2080455;28;20184;-53
2021/05/07 02:37:06;;;;;;;17.37;14.73;;;;;;;;;;2088673;28;20199;-56
2021/05/07 02:38:07;;;;;;;18.77;15.67;;;;;;;;;;2095930;28;20179;-57
2021/05/07 02:39:08;;;;;;;17.47;14.80;;;;;;;;;;2106463;28;20266;-56
2021/05/07 02:40:09;;;;;;;15.97;14.27;;;;;;;;;;2098854;28;20277;-58
2021/05/07 02:41:10;;;;;;;16.43;13.93;;;;;;;;;;2095719;28;20226;-53
2021/05/07 02:42:11;;;;;;;19.13;15.50;;;;;;;;;;2094081;28;20674;-55
2021/05/07 02:43:12;;;;;;;16.93;15.03;;;;;;;;;;2088771;28;20175;-52
2021/05/07 02:44:14;;;;;;;18.23;14.83;;;;;;;;;;2089040;28;20644;-53
2021/05/07 02:45:15;;;;;;;17.20;14.43;;;;;;;;;;2089611;28;20164;-54
2021/05/07 02:46:15;;;;;;;16.23;14.40;;;;;;;;;;2095834;28;20615;-57
2021/05/07 02:47:16;;;;;;;16.67;14.37;;;;;;;;;;2092435;28;20175;-55
2021/05/07 02:48:17;;;;;;;15.17;13.63;;;;;;;;;;2088472;28;20176;-56
2021/05/07 02:49:17;;;;;;;17.70;15.43;;;;;;;;;;2094577;28;20556;-57
2021/05/07 02:50:18;;;;;;;18.57;14.73;;;;;;;;;;2092644;28;20171;-56
2021/05/07 02:51:18;;;;;;;16.83;14.83;;;;;;;;;;2098057;28;20245;-54
2021/05/07 02:52:18;;;;;;;18.93;15.57;;;;;;;;;;2105925;28;20731;-54
2021/05/07 02:53:19;;;;;;;19.50;15.50;;;;;;;;;;2097861;28;20284;-56
2021/05/07 02:54:20;;;;;;;18.87;15.00;;;;;;;;;;2087086;28;20181;-55
2021/05/07 02:55:20;;;;;;;17.10;14.47;;;;;;;;;;2094886;28;20220;-54
2021/05/07 02:56:21;;;;;;;20.50;16.57;;;;;;;;;;2098626;28;20167;-55
2021/05/07 02:57:22;;;;;;;19.70;15.90;;;;;;;;;;2090779;28;20697;-56
2021/05/07 02:58:22;;;;;;;18.23;15.13;;;;;;;;;;2089758;28;20230;-55
2021/05/07 02:59:23;;;;;;;19.97;15.93;;;;;;;;;;2097142;28;20206;-56
2021/05/07 03:00:23;;;;;;;17.67;15.53;;;;;;;;;;2107120;28;20178;-57
2021/05/07 03:01:24;;;;;;;16.93;14.70;;;;;;;;;;2106294;28;20718;-54
2021/05/07 03:02:24;;;;;;;18.33;15.33;;;;;;;;;;2098274;28;20179;-60
2021/05/07 03:03:24;;;;;;;16.37;14.27;;;;;;;;;;2098705;28;20457;-58
2021/05/07 03:04:25;;;;;;;18.90;16.20;;;;;;;;;;2106418;28;20165;-56
2021/05/07 03:05:25;;;;;;;17.50;14.67;;;;;;;;;;2090032;28;20175;-58
2021/05/07 03:06:25;;;;;;;18.67;15.13;;;;;;;;;;2089570;28;20176;-57
2021/05/07 03:07:25;;;;;;;19.67;14.40;;;;;;;;;;2108098;28;20170;-57
2021/05/07 03:08:25;;;;;;;17.87;14.33;;;;;;;;;;2108471;28;20177;-57
2021/05/07 03:09:26;;;;;;;19.57;15.63;;;;;;;;;;2108847;28;20174;-56
2021/05/07 03:10:27;;;;;;;19.70;15.07;;;;;;;;;;2108084;28;20185;-58
2021/05/07 03:11:27;;;;;;;18.70;15.87;;;;;;;;;;2100699;28;20167;-55
2021/05/07 03:12:27;;;;;;;21.03;16.57;;;;;;;;;;2100707;28;20218;-54
2021/05/07 03:13:28;;;;;;;21.03;16.63;;;;;;;;;;2109635;28;20191;-55
2021/05/07 03:14:28;;;;;;;21.67;17.10;;;;;;;;;;2105834;28;20247;-57
2021/05/07 03:15:29;;;;;;;21.33;16.90;;;;;;;;;;2107580;28;20189;-60
2021/05/07 03:16:29;;;;;;;19.30;15.87;;;;;;;;;;2108186;28;20163;-57
2021/05/07 03:17:29;;;;;;;21.20;17.80;;;;;;;;;;2110356;28;20541;-57
2021/05/07 03:18:30;;;;;;;21.87;17.13;;;;;;;;;;2098857;28;20236;-55
2021/05/07 03:19:30;;;;;;;21.53;16.70;;;;;;;;;;2097644;28;20325;-56
2021/05/07 03:20:30;;;;;;;21.33;17.10;;;;;;;;;;2106797;28;20231;-58
2021/05/07 03:21:31;;;;;;;26.90;18.77;;;;;;;;;;2106286;28;20174;-55
2021/05/07 03:22:31;;;;;;;22.03;17.20;;;;;;;;;;2105116;28;20170;-58
2021/05/07 03:23:32;;;;;;;23.97;17.87;;;;;;;;;;2094508;28;20320;-56
2021/05/07 03:24:32;;;;;;;19.53;16.67;;;;;;;;;;2093363;28;20241;-55
2021/05/07 03:25:33;;;;;;;20.87;17.50;;;;;;;;;;2101798;28;20184;-57
2021/05/07 03:26:33;;;;;;;22.57;17.73;;;;;;;;;;2097810;28;20225;-59
2021/05/07 03:27:34;;;;;;;22.83;17.67;;;;;;;;;;2097006;28;20174;-55
2021/05/07 03:28:34;;;;;;;23.50;18.87;;;;;;;;;;2087095;28;20213;-57
2021/05/07 03:29:34;;;;;;;22.97;17.57;;;;;;;;;;2087826;28;20175;-53
2021/05/07 03:30:35;;;;;;;22.67;17.97;;;;;;;;;;2105912;28;20173;-56
2021/05/07 03:31:35;;;;;;;23.97;19.20;;;;;;;;;;2105190;28;20274;-56
2021/05/07 03:32:35;;;;;;;22.83;19.00;;;;;;;;;;2106580;28;20190;-54
2021/05/07 03:33:36;;;;;;;23.17;19.53;;;;;;;;;;2105332;28;20197;-58
2021/05/07 03:34:36;;;;;;;23.60;19.27;;;;;;;;;;2106009;28;20261;-55
2021/05/07 03:35:37;;;;;;;23.13;18.17;;;;;;;;;;2091641;28;20670;-53
2021/05/07 03:36:37;;;;;;;25.80;19.40;;;;;;;;;;2095528;28;20483;-56
2021/05/07 03:37:37;;;;;;;23.07;18.93;;;;;;;;;;2104403;28;20537;-53
2021/05/07 03:38:38;;;;;;;25.03;20.27;;;;;;;;;;2106413;28;20207;-56
2021/05/07 03:39:38;;;;;;;23.83;18.63;;;;;;;;;;2099702;28;20585;-58
2021/05/07 03:40:38;;;;;;;24.10;18.30;;;;;;;;;;2101067;28;20171;-54
2021/05/07 03:41:39;;;;;;;24.43;20.23;;;;;;;;;;2100768;28;20174;-55
2021/05/07 03:42:39;;;;;;;23.03;18.47;;;;;;;;;;2089593;28;20211;-57
2021/05/07 03:43:39;;;;;;;24.37;19.57;;;;;;;;;;2090122;28;20771;-56
2021/05/07 03:44:39;;;;;;;23.80;17.97;;;;;;;;;;2105340;28;20624;-55
2021/05/07 03:45:40;;;;;;;22.37;18.50;;;;;;;;;;2099390;28;20174;-57
2021/05/07 03:46:40;;;;;;;22.87;18.30;;;;;;;;;;2093756;28;20194;-54
2021/05/07 03:47:41;;;;;;;22.37;18.90;;;;;;;;;;2097541;28;20177;-56
2021/05/07 03:48:41;;;;;;;21.67;18.07;;;;;;;;;;2104070;28;20551;-55
2021/05/07 03:49:41;;;;;;;20.53;18.33;;;;;;;;;;2103591;28;20186;-57
2021/05/07 03:50:42;;;;;;;21.77;17.83;;;;;;;;;;2102451;28;20607;-55
2021/05/07 03:51:42;;;;;;;24.10;18.13;;;;;;;;;;2105468;28;20193;-54
2021/05/07 03:52:43;;;;;;;22.27;18.67;;;;;;;;;;2106180;28;20732;-57
2021/05/07 03:53:43;;;;;;;21.73;17.57;;;;;;;;;;2105939;28;20178;-58
2021/05/07 03:54:45;;;;;;;25.13;18.77;;;;;;;;;;2096107;28;20170;-57
2021/05/07 03:55:45;;;;;;;22.57;18.97;;;;;;;;;;2097411;28;20675;-58
2021/05/07 03:56:45;;;;;;;25.77;19.67;;;;;;;;;;2101063;28;20179;-57
2021/05/07 03:57:47;;;;;;;24.80;18.20;;;;;;;;;;2105897;28;20215;-55
2021/05/07 03:58:47;;;;;;;23.53;19.07;;;;;;;;;;2101632;28;20213;-55
2021/05/07 03:59:47;;;;;;;21.57;18.80;;;;;;;;;;2097041;28;20171;-59
2021/05/07 04:00:47;;;;;;;22.23;18.77;;;;;;;;;;2096986;28;20237;-59
2021/05/07 04:01:48;;;;;;;28.97;18.67;;;;;;;;;;2106661;28;20284;-57
2021/05/07 04:02:48;;;;;;;21.07;18.00;;;;;;;;;;2106039;28;20186;-56
2021/05/07 04:03:48;;;;;;;23.83;19.23;;;;;;;;;;2106038;28;20205;-56
2021/05/07 04:04:49;;;;;;;20.77;18.43;;;;;;;;;;2090456;28;20668;-55
2021/05/07 04:05:52;;;;;;;25.73;19.20;;;;;;;;;;2089294;28;20226;-61
2021/05/07 04:06:53;;;;;;;21.77;18.87;;;;;;;;;;2096750;28;20262;-54
2021/05/07 04:10:13;;;;;;;23.47;19.30;;;;;;;;;;2106093;28;20151;-55
2021/05/07 04:11:27;;;;;;;23.07;18.70;;;;;;;;;;2107196;28;20638;-58
2021/05/07 04:14:34;;;;;;;22.70;18.63;;;;;;;;;;2105819;28;20657;-54
2021/05/07 04:15:34;;;;;;;25.73;19.47;;;;;;;;;;2106861;28;20254;-53
2021/05/07 04:16:34;;;;;;;22.33;18.77;;;;;;;;;;2105230;28;20193;-59
2021/05/07 04:17:35;;;;;;;24.53;19.57;;;;;;;;;;2107139;28;20211;-52
2021/05/07 04:18:35;;;;;;;26.83;19.70;;;;;;;;;;2106006;28;20251;-57
2021/05/07 04:19:35;;;;;;;25.40;20.13;;;;;;;;;;2102879;28;20554;-54
2021/05/07 04:20:36;;;;;;;26.13;20.97;;;;;;;;;;2100048;28;20629;-55
2021/05/07 04:21:36;;;;;;;26.53;19.57;;;;;;;;;;2093210;28;20568;-55
2021/05/07 04:22:37;;;;;;;23.93;18.63;;;;;;;;;;2098267;28;20258;-56
2021/05/07 04:23:37;;;;;;;28.90;20.27;;;;;;;;;;2095688;28;20163;-58
2021/05/07 04:24:37;;;;;;;25.60;20.67;;;;;;;;;;2090677;28;20190;-56
2021/05/07 04:25:38;;;;;;;29.87;21.03;;;;;;;;;;2107532;28;20555;-58
2021/05/07 04:26:38;;;;;;;24.83;19.30;;;;;;;;;;2097735;28;20222;-59
2021/05/07 04:27:38;;;;;;;30.10;21.17;;;;;;;;;;2089896;28;20179;-57
2021/05/07 04:28:39;;;;;;;32.33;21.87;;;;;;;;;;2096330;28;20166;-58
2021/05/07 04:29:40;;;;;;;30.63;22.20;;;;;;;;;;2097413;28;20190;-58
2021/05/07 04:30:40;;;;;;;29.73;21.33;;;;;;;;;;2105228;28;20178;-56
2021/05/07 04:31:40;;;;;;;33.13;23.20;;;;;;;;;;2097879;28;20190;-58
2021/05/07 04:32:41;;;;;;;27.63;22.13;;;;;;;;;;2097247;28;20174;-54
2021/05/07 04:33:41;;;;;;;28.87;21.63;;;;;;;;;;2104016;28;20251;-57
2021/05/07 04:34:41;;;;;;;28.37;20.73;;;;;;;;;;2103333;28;20179;-59
2021/05/07 04:35:42;;;;;;;27.33;20.63;;;;;;;;;;2095813;28;20175;-57
2021/05/07 04:36:42;;;;;;;26.37;20.60;;;;;;;;;;2096610;28;20197;-58
2021/05/07 04:37:42;;;;;;;28.27;20.80;;;;;;;;;;2106746;28;20271;-57
2021/05/07 04:38:43;;;;;;;26.63;21.17;;;;;;;;;;2105983;28;20193;-57
2021/05/07 04:39:43;;;;;;;25.87;22.43;;;;;;;;;;2105683;28;20166;-54
2021/05/07 04:40:43;;;;;;;29.13;21.37;;;;;;;;;;2106001;28;20642;-57
2021/05/07 04:41:44;;;;;;;30.53;22.77;;;;;;;;;;2097337;28;20207;-55
2021/05/07 04:42:44;;;;;;;27.30;21.17;;;;;;;;;;2097156;28;20171;-58
2021/05/07 04:43:44;;;;;;;29.47;22.00;;;;;;;;;;2097300;28;20171;-59
2021/05/07 04:44:44;;;;;;;28.90;21.73;;;;;;;;;;2088682;28;20179;-57
2021/05/07 04:45:45;;;;;;;29.03;21.40;;;;;;;;;;2088420;28;20179;-58
2021/05/07 04:46:45;;;;;;;31.57;22.80;;;;;;;;;;2096803;28;20174;-56
2021/05/07 04:47:45;;;;;;;26.93;21.17;;;;;;;;;;2106407;28;20162;-54
2021/05/07 04:48:46;;;;;;;30.77;22.50;;;;;;;;;;2103193;28;20245;-57
2021/05/07 04:49:46;;;;;;;26.33;22.63;;;;;;;;;;2104782;28;20642;-56
2021/05/07 04:50:46;;;;;;;28.07;20.37;;;;;;;;;;2099585;28;20179;-59
2021/05/07 04:51:46;;;;;;;29.60;20.90;;;;;;;;;;2103551;28;20178;-55
2021/05/07 04:52:47;;;;;;;29.90;22.90;;;;;;;;;;2106890;28;20252;-56
2021/05/07 04:53:47;;;;;;;31.43;22.40;;;;;;;;;;2107378;28;20188;-57
2021/05/07 04:54:48;;;;;;;29.10;23.23;;;;;;;;;;2108254;28;20179;-61
2021/05/07 04:55:48;;;;;;;29.57;21.97;;;;;;;;;;2105108;28;20171;-58
2021/05/07 04:56:49;;;;;;;31.47;23.10;;;;;;;;;;2106673;28;20170;-57
2021/05/07 04:57:50;;;;;;;31.27;22.33;;;;;;;;;;2089267;28;20258;-59
2021/05/07 04:58:50;;;;;;;31.30;23.50;;;;;;;;;;2084972;28;20578;-57
2021/05/07 04:59:50;;;;;;;31.27;23.43;;;;;;;;;;2107011;28;20205;-53
2021/05/07 05:00:51;;;;;;;30.37;21.87;;;;;;;;;;2107525;28;20159;-57
2021/05/07 05:01:51;;;;;;;31.43;22.33;;;;;;;;;;2108109;28;20217;-57
2021/05/07 05:02:51;;;;;;;32.23;23.47;;;;;;;;;;2099664;28;20246;-59
2021/05/07 05:03:51;;;;;;;28.03;22.27;;;;;;;;;;2094315;28;20156;-60
2021/05/07 05:04:52;;;;;;;29.37;22.57;;;;;;;;;;2111009;28;20193;-58
2021/05/07 05:05:52;;;;;;;29.00;21.90;;;;;;;;;;2101313;28;20170;-58
2021/05/07 05:06:52;;;;;;;32.97;23.17;;;;;;;;;;2103274;28;20216;-53
2021/05/07 05:07:54;;;;;;;31.07;23.03;;;;;;;;;;2109689;28;20177;-58
2021/05/07 05:08:55;;;;;;;31.13;23.03;;;;;;;;;;2109563;28;20166;-54
2021/05/07 05:09:55;;;;;;;28.70;22.47;;;;;;;;;;2108940;28;20684;-57
2021/05/07 05:10:56;;;;;;;29.70;22.90;;;;;;;;;;2102248;28;20171;-58
2021/05/07 05:11:56;;;;;;;29.30;21.80;;;;;;;;;;2109592;28;20662;-54
2021/05/07 05:12:56;;;;;;;29.33;21.33;;;;;;;;;;2109553;28;20178;-58
2021/05/07 05:13:56;;;;;;;29.70;23.10;;;;;;;;;;2108504;28;20198;-55
2021/05/07 05:14:57;;;;;;;27.73;22.30;;;;;;;;;;2109622;28;20601;-56
2021/05/07 05:15:57;;;;;;;30.17;22.93;;;;;;;;;;2108941;28;20194;-54
2021/05/07 05:16:57;;;;;;;30.53;22.57;;;;;;;;;;2109428;28;20180;-56
2021/05/07 05:17:57;;;;;;;28.70;21.73;;;;;;;;;;2108583;28;20204;-56
2021/05/07 05:18:58;;;;;;;29.70;21.63;;;;;;;;;;2100376;28;20211;-56
2021/05/07 05:19:58;;;;;;;27.90;21.97;;;;;;;;;;2099461;28;20174;-57
2021/05/07 05:20:59;;;;;;;27.47;21.70;;;;;;;;;;2100689;28;20266;-59
2021/05/07 05:22:00;;;;;;;26.67;21.90;;;;;;;;;;2090759;28;20227;-56
2021/05/07 05:23:00;;;;;;;25.37;21.03;;;;;;;;;;2093033;28;20178;-59
2021/05/07 05:24:00;;;;;;;25.40;20.17;;;;;;;;;;2103467;28;20269;-61
2021/05/07 05:25:04;;;;;;;26.73;21.07;;;;;;;;;;2110506;28;20649;-60
2021/05/07 05:26:04;;;;;;;26.83;20.60;;;;;;;;;;2104332;28;20179;-53
2021/05/07 05:27:05;;;;;;;24.53;20.03;;;;;;;;;;2109820;28;20167;-59
2021/05/07 05:28:06;;;;;;;27.17;21.27;;;;;;;;;;2099642;28;20606;-57
2021/05/07 05:29:06;;;;;;;25.10;20.17;;;;;;;;;;2095990;28;20210;-56
2021/05/07 05:30:07;;;;;;;24.83;20.50;;;;;;;;;;2096003;28;20614;-57
2021/05/07 05:31:07;;;;;;;24.73;20.33;;;;;;;;;;2096140;28;20198;-58
2021/05/07 05:32:08;;;;;;;27.80;20.67;;;;;;;;;;2092096;28;20211;-54
2021/05/07 05:33:08;;;;;;;25.07;18.23;;;;;;;;;;2104391;28;20239;-57
2021/05/07 05:34:08;;;;;;;25.73;20.60;;;;;;;;;;2098699;28;20175;-55
2021/05/07 05:35:09;;;;;;;24.70;19.93;;;;;;;;;;2098719;28;20198;-54
2021/05/07 05:36:09;;;;;;;24.33;20.47;;;;;;;;;;2108585;28;20264;-59
2021/05/07 05:37:11;;;;;;;24.27;19.20;;;;;;;;;;2098862;28;20183;-58
2021/05/07 05:38:12;;;;;;;23.77;20.03;;;;;;;;;;2099400;28;20190;-59
2021/05/07 05:39:14;;;;;;;25.10;19.50;;;;;;;;;;2100635;28;20198;-59
2021/05/07 05:40:14;;;;;;;24.40;18.30;;;;;;;;;;2090161;28;20180;-62
2021/05/07 05:41:15;;;;;;;21.57;18.17;;;;;;;;;;2101196;28;20163;-58
2021/05/07 05:42:15;;;;;;;22.13;17.90;;;;;;;;;;2107021;28;20273;-56
2021/05/07 05:43:15;;;;;;;23.93;18.87;;;;;;;;;;2106298;28;20178;-59
2021/05/07 05:44:15;;;;;;;21.40;17.50;;;;;;;;;;2109878;28;20174;-59
2021/05/07 05:45:16;;;;;;;21.10;17.30;;;;;;;;;;2106201;28;20205;-61
2021/05/07 05:46:16;;;;;;;22.07;17.90;;;;;;;;;;2110382;28;20162;-59
2021/05/07 05:47:17;;;;;;;20.00;17.10;;;;;;;;;;2110222;28;20185;-59
2021/05/07 05:48:18;;;;;;;20.37;16.33;;;;;;;;;;2110727;28;20177;-59
2021/05/07 05:49:18;;;;;;;19.23;16.70;;;;;;;;;;2109646;28;20212;-59
2021/05/07 05:50:18;;;;;;;19.07;16.87;;;;;;;;;;2106433;28;20201;-60
2021/05/07 05:51:19;;;;;;;22.90;16.23;;;;;;;;;;2107338;28;20211;-61
2021/05/07 05:52:19;;;;;;;17.30;15.50;;;;;;;;;;2109645;28;20194;-60
2021/05/07 05:53:19;;;;;;;18.13;15.67;;;;;;;;;;2110012;28;20235;-59
2021/05/07 05:54:20;;;;;;;16.13;14.33;;;;;;;;;;2109388;28;20197;-59
2021/05/07 05:55:21;;;;;;;18.20;15.33;;;;;;;;;;2100318;28;20666;-60
2021/05/07 05:56:21;;;;;;;17.80;15.90;;;;;;;;;;2100572;28;20174;-61
2021/05/07 05:57:21;;;;;;;17.37;15.47;;;;;;;;;;2101578;28;20178;-60
2021/05/07 05:58:22;;;;;;;23.93;15.40;;;;;;;;;;2096134;28;20232;-63